GYY weather

Gary Chicago International Airport
Gary, Indiana, United States

Public forecast

Using degrees Fahrenheit for public forecast. Weather courtesy of forecast.io.

Current aviation weather report (METAR) for Gary Chicago International Airport

Retrieved 2020/06/01 22:45 UTC (59 minutes ago):

KGYY 012245Z 18012KT 10SM SCT100 24/09 A3006

Aviation forecast (TAF) for Gary Chicago International Airport

Retrieved 2020/06/01 18:24 UTC (5 hours ago):

TAF KGYY 011721Z 0118/0218 19012G19KT P6SM -SHRA SCT045 OVC070 FM012100 20016G26KT P6SM BKN100 FM020200 20014G20KT P6SM SCT050 WS015/24045KT FM021400 24012G18KT P6SM SCT250